Time;durP1;ratioP1;P1;durP2;ratioP2;P2;SDS_P1;SDS_P2;PMS_P1;PMS_P2;Temp;Humidity;BMP_temperature;BMP_pressure;BME280_temperature;BME280_humidity;BME280_pressure;Samples;Min_cycle;Max_cycle;Signal;HPM_P1;HPM_P2
2022/02/13 00:01:10;;;;;;;8.80;6.10;;;4.30;1.00;;;;;;5105775;28;20787;-76
2022/02/13 00:03:36;;;;;;;11.30;7.50;;;4.30;1.00;;;;;;5103297;28;20189;-76
2022/02/13 00:06:02;;;;;;;8.57;6.73;;;4.30;1.00;;;;;;5106587;28;20968;-75
2022/02/13 00:08:28;;;;;;;9.20;6.80;;;4.30;1.00;;;;;;5102034;28;20954;-77
2022/02/13 00:10:54;;;;;;;11.13;7.00;;;;;;;;;;5098278;28;20533;-75
2022/02/13 00:13:19;;;;;;;7.77;5.83;;;4.20;1.00;;;;;;5084966;28;20174;-76
2022/02/13 00:15:45;;;;;;;9.90;7.30;;;;;;;;;;5099439;28;20556;-76
2022/02/13 00:18:11;;;;;;;9.03;7.00;;;;;;;;;;5099784;28;20665;-77
2022/02/13 00:20:37;;;;;;;13.30;8.10;;;;;;;;;;5099468;28;20447;-76
2022/02/13 00:23:03;;;;;;;9.70;7.53;;;;;;;;;;5106348;28;20469;-76
2022/02/13 00:25:29;;;;;;;11.80;7.10;;;4.20;1.00;;;;;;5102810;28;20822;-75
2022/02/13 00:27:55;;;;;;;10.60;7.80;;;4.10;1.00;;;;;;5104704;28;20491;-77
2022/02/13 00:30:21;;;;;;;9.93;7.50;;;;;;;;;;5101745;28;20186;-75
2022/02/13 00:32:48;;;;;;;11.77;7.23;;;4.10;1.00;;;;;;5099133;28;20449;-77
2022/02/13 00:35:14;;;;;;;9.47;7.20;;;;;;;;;;5103310;28;20947;-76
2022/02/13 00:37:40;;;;;;;8.80;6.73;;;4.10;1.00;;;;;;5104647;28;20808;-76
2022/02/13 00:40:07;;;;;;;8.10;7.00;;;4.10;1.00;;;;;;5106608;28;20535;-75
2022/02/13 00:42:33;;;;;;;11.23;8.10;;;4.10;1.00;;;;;;5078460;28;20528;-76
2022/02/13 00:45:00;;;;;;;9.80;6.93;;;4.00;1.00;;;;;;5103091;28;20814;-76
2022/02/13 00:47:26;;;;;;;10.40;7.77;;;;;;;;;;5104445;28;20972;-76
2022/02/13 00:49:52;;;;;;;9.43;7.10;;;;;;;;;;5102782;28;20862;-76
2022/02/13 00:52:18;;;;;;;10.80;7.50;;;;;;;;;;5100709;28;20891;-76
2022/02/13 00:54:44;;;;;;;10.37;7.57;;;3.90;1.00;;;;;;5102931;28;20479;-76
2022/02/13 00:57:10;;;;;;;11.43;7.40;;;3.90;1.00;;;;;;5096659;28;20483;-75
2022/02/13 00:59:36;;;;;;;12.20;7.53;;;3.80;1.00;;;;;;5101133;28;20521;-76
2022/02/13 01:02:01;;;;;;;9.80;6.60;;;3.80;1.00;;;;;;5103815;28;20185;-76
2022/02/13 01:04:27;;;;;;;11.10;7.67;;;;;;;;;;5103041;28;20255;-76
2022/02/13 01:06:53;;;;;;;12.23;7.13;;;;;;;;;;5102799;28;20207;-76
2022/02/13 01:09:19;;;;;;;12.13;7.77;;;3.80;1.00;;;;;;5097447;28;20457;-75
2022/02/13 01:11:44;;;;;;;8.97;7.47;;;3.80;1.00;;;;;;5097363;28;20436;-75
2022/02/13 01:14:10;;;;;;;10.60;8.10;;;3.70;1.00;;;;;;5105886;28;20301;-75
2022/02/13 01:16:36;;;;;;;10.30;8.50;;;;;;;;;;5081741;28;20183;-76
2022/02/13 01:19:02;;;;;;;10.47;7.43;;;3.80;1.00;;;;;;5104679;28;20221;-76
2022/02/13 01:21:31;;;;;;;10.20;7.10;;;;;;;;;;5106008;28;20455;-76
2022/02/13 01:23:57;;;;;;;8.77;6.73;;;;;;;;;;5106256;28;20428;-76
2022/02/13 01:26:23;;;;;;;10.33;7.23;;;;;;;;;;5105460;28;20459;-77
2022/02/13 01:28:49;;;;;;;12.93;8.07;;;;;;;;;;5099749;28;20448;-76
2022/02/13 01:31:15;;;;;;;10.90;7.80;;;3.80;1.00;;;;;;5099593;28;20446;-77
2022/02/13 01:33:41;;;;;;;10.23;7.90;;;;;;;;;;5103036;28;20436;-76
2022/02/13 01:36:08;;;;;;;12.67;9.10;;;3.70;1.00;;;;;;5085726;28;20185;-77
2022/02/13 01:38:34;;;;;;;10.00;7.90;;;;;;;;;;5080307;28;20555;-77
2022/02/13 01:41:00;;;;;;;11.47;7.97;;;;;;;;;;5099307;28;20530;-76
2022/02/13 01:43:25;;;;;;;14.30;7.97;;;3.70;1.00;;;;;;5097127;28;20451;-77
2022/02/13 01:45:51;;;;;;;11.27;7.20;;;3.80;1.00;;;;;;5109130;28;20464;-77
2022/02/13 01:48:17;;;;;;;14.10;9.30;;;;;;;;;;5099812;28;20189;-77
2022/02/13 01:50:45;;;;;;;9.67;7.27;;;3.70;1.00;;;;;;5097298;28;20182;-75
2022/02/13 01:53:12;;;;;;;10.40;8.00;;;3.70;1.00;;;;;;5102030;28;20467;-76
2022/02/13 01:55:37;;;;;;;10.50;6.80;;;3.70;1.00;;;;;;5108522;28;20783;-76
2022/02/13 01:58:04;;;;;;;8.47;7.50;;;3.60;1.00;;;;;;5107909;28;20455;-76
2022/02/13 02:00:30;;;;;;;13.40;8.47;;;;;;;;;;5090599;28;20277;-76
2022/02/13 02:02:55;;;;;;;9.30;6.73;;;3.60;1.00;;;;;;5102358;28;20551;-74
2022/02/13 02:05:21;;;;;;;11.20;7.20;;;3.60;1.00;;;;;;5103509;28;20474;-76
2022/02/13 02:07:47;;;;;;;11.50;8.30;;;;;;;;;;5109389;28;20178;-77
2022/02/13 02:10:12;;;;;;;11.37;8.40;;;3.50;1.00;;;;;;5108175;28;20214;-76
2022/02/13 02:12:39;;;;;;;8.90;7.37;;;3.50;1.00;;;;;;5103281;28;20478;-76
2022/02/13 02:15:06;;;;;;;9.80;7.80;;;3.50;1.00;;;;;;5101931;28;20178;-76
2022/02/13 02:17:33;;;;;;;11.57;7.93;;;3.50;1.00;;;;;;5104317;28;20534;-77
2022/02/13 02:19:58;;;;;;;11.40;7.93;;;;;;;;;;5104590;28;20479;-77
2022/02/13 02:22:24;;;;;;;9.53;7.50;;;;;;;;;;5111558;28;20951;-77
2022/02/13 02:24:50;;;;;;;13.17;8.40;;;;;;;;;;5080198;28;20456;-75
2022/02/13 02:27:16;;;;;;;12.00;8.50;;;;;;;;;;5101393;28;20794;-76
2022/02/13 02:29:42;;;;;;;8.93;6.57;;;;;;;;;;5096075;28;20451;-77
2022/02/13 02:32:11;;;;;;;10.53;7.93;;;3.50;1.00;;;;;;5097636;28;20456;-76
2022/02/13 02:34:38;;;;;;;12.23;8.17;;;3.40;1.00;;;;;;5105653;28;20489;-76
2022/02/13 02:37:05;;;;;;;9.63;7.23;;;3.40;1.00;;;;;;5100557;28;20444;-77
2022/02/13 02:39:32;;;;;;;10.33;6.87;;;3.40;1.00;;;;;;5105744;28;20467;-77
2022/02/13 02:41:58;;;;;;;10.63;6.80;;;3.30;1.00;;;;;;5106401;28;21845;-77
2022/02/13 02:44:24;;;;;;;10.20;8.00;;;;;;;;;;5097949;28;20485;-77
2022/02/13 02:46:49;;;;;;;10.07;7.77;;;3.40;1.00;;;;;;5098119;28;20294;-77
2022/02/13 02:49:15;;;;;;;16.53;8.20;;;;;;;;;;5080791;28;20440;-76
2022/02/13 02:51:41;;;;;;;11.87;8.03;;;;;;;;;;5109559;28;20600;-75
2022/02/13 02:54:07;;;;;;;11.80;7.93;;;;;;;;;;5104400;28;20526;-77
2022/02/13 02:56:32;;;;;;;11.10;7.67;;;3.30;1.00;;;;;;5104349;28;20596;-76
2022/02/13 02:58:58;;;;;;;10.43;7.30;;;3.30;1.00;;;;;;5097855;28;20474;-77
2022/02/13 03:01:24;;;;;;;13.97;7.47;;;3.20;1.00;;;;;;5097390;28;20190;-76
2022/02/13 03:03:49;;;;;;;13.23;8.43;;;;;;;;;;5101520;28;20197;-76
2022/02/13 03:06:15;;;;;;;10.90;7.53;;;;;;;;;;5100603;28;20666;-76
2022/02/13 03:08:41;;;;;;;8.27;6.80;;;;;;;;;;5107621;28;20441;-75
2022/02/13 03:11:09;;;;;;;9.70;7.50;;;;;;;;;;5098653;28;20448;-76
2022/02/13 03:13:35;;;;;;;9.43;7.50;;;1.90;1.00;;;;;;5106767;28;20527;-76
2022/02/13 03:16:01;;;;;;;10.43;7.53;;;3.10;1.00;;;;;;5105887;28;20987;-76
2022/02/13 03:18:30;;;;;;;8.67;7.00;;;3.10;1.00;;;;;;5099019;28;20453;-76
2022/02/13 03:20:56;;;;;;;10.17;6.70;;;;;;;;;;5098440;28;20448;-76
2022/02/13 03:23:21;;;;;;;10.77;7.43;;;3.20;1.00;;;;;;5090303;28;20500;-76
2022/02/13 03:25:47;;;;;;;7.40;6.60;;;3.20;1.00;;;;;;5105609;28;20464;-76
2022/02/13 03:28:13;;;;;;;11.27;7.97;;;;;;;;;;5087225;28;20186;-76
2022/02/13 03:30:39;;;;;;;10.10;7.57;;;;;;;;;;5100748;28;20191;-75
2022/02/13 03:33:05;;;;;;;10.17;8.17;;;3.20;1.00;;;;;;5104045;28;20539;-76
2022/02/13 03:35:30;;;;;;;10.67;7.43;;;;;;;;;;5109177;28;20447;-76
2022/02/13 03:37:56;;;;;;;10.07;6.73;;;;;;;;;;5105062;28;20441;-76
2022/02/13 03:40:22;;;;;;;10.73;7.30;;;;;;;;;;5098510;28;20471;-75
2022/02/13 03:42:48;;;;;;;11.50;8.23;;;3.00;1.00;;;;;;5105955;28;20435;-76
2022/02/13 03:45:14;;;;;;;9.07;7.03;;;;;;;;;;5103954;28;21295;-76
2022/02/13 03:47:40;;;;;;;9.60;7.20;;;2.90;1.00;;;;;;5096014;28;20194;-76
2022/02/13 03:50:07;;;;;;;7.73;6.57;;;2.90;1.00;;;;;;5109057;28;20969;-76
2022/02/13 03:52:33;;;;;;;13.23;7.70;;;2.90;1.00;;;;;;5082110;28;20911;-76
2022/02/13 03:55:00;;;;;;;11.63;7.13;;;;;;;;;;5099612;28;20464;-76
2022/02/13 03:57:26;;;;;;;8.10;6.90;;;2.90;1.00;;;;;;5109764;28;20650;-76
2022/02/13 03:59:52;;;;;;;10.20;7.80;;;2.90;1.00;;;;;;5102969;28;20457;-76
2022/02/13 04:02:18;;;;;;;9.73;7.33;;;;;;;;;;5102981;28;20455;-76
2022/02/13 04:04:43;;;;;;;12.70;7.73;;;2.90;1.00;;;;;;5106205;28;20451;-76
2022/02/13 04:07:09;;;;;;;10.03;7.43;;;;;;;;;;5107578;28;20471;-75
2022/02/13 04:09:36;;;;;;;11.20;8.57;;;;;;;;;;5110172;28;20190;-76
2022/02/13 04:12:02;;;;;;;11.20;7.90;;;;;;;;;;5099573;28;20440;-75
2022/02/13 04:14:27;;;;;;;13.50;8.33;;;2.70;1.00;;;;;;5087165;28;20440;-75
2022/02/13 04:16:53;;;;;;;11.50;7.87;;;2.70;1.00;;;;;;5100387;28;20464;-75
2022/02/13 04:19:19;;;;;;;10.37;7.97;;;;;;;;;;5086981;28;20280;-75
2022/02/13 04:21:44;;;;;;;10.27;7.80;;;2.70;1.00;;;;;;5099692;28;20205;-76
2022/02/13 04:24:10;;;;;;;8.53;6.70;;;2.70;1.00;;;;;;5105573;28;20448;-76
2022/02/13 04:26:36;;;;;;;8.63;7.33;;;;;;;;;;5086593;28;20315;-76
2022/02/13 04:29:02;;;;;;;13.70;8.67;;;;;;;;;;5085637;28;20295;-76
2022/02/13 04:31:28;;;;;;;10.27;7.27;;;;;;;;;;5094615;28;20577;-75
2022/02/13 04:33:54;;;;;;;12.73;7.77;;;;;;;;;;5102055;28;20428;-76
2022/02/13 04:36:20;;;;;;;13.20;7.80;;;;;;;;;;5096891;28;20481;-76
2022/02/13 04:38:46;;;;;;;11.10;8.47;;;;;;;;;;5100347;28;20451;-76
2022/02/13 04:41:12;;;;;;;9.93;7.80;;;2.70;1.00;;;;;;5094975;28;20501;-76
2022/02/13 04:43:37;;;;;;;10.13;7.53;;;2.60;1.00;;;;;;5100460;28;20455;-76
2022/02/13 04:46:03;;;;;;;12.20;8.03;;;2.60;1.00;;;;;;5098227;28;20206;-76
2022/02/13 04:48:29;;;;;;;11.07;7.50;;;;;;;;;;5105678;28;20186;-76
2022/02/13 04:50:54;;;;;;;11.37;7.40;;;2.70;1.00;;;;;;5104372;28;20182;-76
2022/02/13 04:53:20;;;;;;;15.50;8.70;;;;;;;;;;5103766;28;20474;-75
2022/02/13 04:55:47;;;;;;;12.20;7.70;;;;;;;;;;5102389;28;20182;-75
2022/02/13 04:58:13;;;;;;;12.70;8.90;;;;;;;;;;5098677;28;20493;-76
2022/02/13 05:00:39;;;;;;;15.00;8.53;;;;;;;;;;5100346;28;20455;-75
2022/02/13 05:03:04;;;;;;;10.80;7.53;;;;;;;;;;5102012;28;20444;-76
2022/02/13 05:05:30;;;;;;;11.27;8.47;;;2.60;1.00;;;;;;5101895;28;20465;-75
2022/02/13 05:07:56;;;;;;;11.63;8.20;;;;;;;;;;5102980;28;20498;-75
2022/02/13 05:10:22;;;;;;;10.60;8.33;;;;;;;;;;5099347;28;20182;-76
2022/02/13 05:12:48;;;;;;;10.63;7.40;;;;;;;;;;5097384;28;21005;-75
2022/02/13 05:15:15;;;;;;;10.23;7.40;;;;;;;;;;5099549;28;20454;-75
2022/02/13 05:17:40;;;;;;;9.57;7.20;;;2.50;1.00;;;;;;5099724;28;20528;-75
2022/02/13 05:20:07;;;;;;;10.87;8.10;;;2.40;1.00;;;;;;5102513;28;20480;-76
2022/02/13 05:22:33;;;;;;;12.60;8.70;;;;;;;;;;5104800;28;20193;-76
2022/02/13 05:24:59;;;;;;;10.20;8.10;;;;;;;;;;5103542;28;20936;-75
2022/02/13 05:27:25;;;;;;;13.60;8.93;;;;;;;;;;5100527;28;20470;-75
2022/02/13 05:29:51;;;;;;;13.97;8.70;;;2.40;1.00;;;;;;5101848;28;20439;-74
2022/02/13 05:32:16;;;;;;;13.00;9.67;;;2.40;1.00;;;;;;5098287;28;20463;-75
2022/02/13 05:34:42;;;;;;;15.63;10.77;;;;;;;;;;5098657;28;20235;-75
2022/02/13 05:37:08;;;;;;;13.30;10.00;;;;;;;;;;5102582;28;20287;-73
2022/02/13 05:39:34;;;;;;;10.60;8.97;;;2.40;1.00;;;;;;5105242;28;20443;-74
2022/02/13 05:42:00;;;;;;;9.33;8.20;;;2.40;1.00;;;;;;5106094;28;20513;-75
2022/02/13 05:44:26;;;;;;;17.47;10.10;;;;;;;;;;5110981;28;20190;-75
2022/02/13 05:46:52;;;;;;;12.97;9.60;;;;;;;;;;5110617;28;20536;-75
2022/02/13 05:49:18;;;;;;;13.40;9.20;;;;;;;;;;5106230;28;20901;-74
2022/02/13 05:51:45;;;;;;;16.10;9.60;;;;;;;;;;5103321;28;20522;-75
2022/02/13 05:54:11;;;;;;;12.40;9.10;;;;;;;;;;5108217;28;20490;-75
2022/02/13 05:56:38;;;;;;;12.43;9.20;;;;;;;;;;5104625;28;20480;-76
2022/02/13 05:59:04;;;;;;;13.47;9.60;;;;;;;;;;5107452;28;22082;-76
2022/02/13 06:01:30;;;;;;;12.90;8.70;;;;;;;;;;5108921;28;21016;-75
2022/02/13 06:03:56;;;;;;;13.10;9.70;;;;;;;;;;5087271;28;20447;-75
2022/02/13 06:06:21;;;;;;;13.97;9.80;;;2.30;1.00;;;;;;5103914;28;20475;-75
2022/02/13 06:08:48;;;;;;;13.77;9.37;;;2.20;1.00;;;;;;5106282;28;20504;-75
2022/02/13 06:11:14;;;;;;;13.07;9.57;;;;;;;;;;5108738;28;20193;-76
2022/02/13 06:13:40;;;;;;;11.50;9.90;;;2.20;1.00;;;;;;5109672;28;20476;-76
2022/02/13 06:16:08;;;;;;;11.53;9.10;;;2.20;1.00;;;;;;5108872;28;20887;-76
2022/02/13 06:18:35;;;;;;;14.07;10.50;;;2.10;1.00;;;;;;5107896;28;20240;-76
2022/02/13 06:21:02;;;;;;;15.77;9.90;;;2.20;1.00;;;;;;5085302;28;20487;-76
2022/02/13 06:23:28;;;;;;;14.27;9.33;;;;;;;;;;5107271;28;20813;-75
2022/02/13 06:25:54;;;;;;;12.70;9.53;;;2.20;1.00;;;;;;5109837;28;20471;-76
2022/02/13 06:28:20;;;;;;;13.20;10.33;;;;;;;;;;5108929;28;20497;-75
2022/02/13 06:30:46;;;;;;;11.60;8.97;;;;;;;;;;5096775;28;20437;-76
2022/02/13 06:33:14;;;;;;;12.90;8.97;;;2.20;1.00;;;;;;5109707;28;20447;-76
2022/02/13 06:35:40;;;;;;;15.53;10.10;;;;;;;;;;5099448;28;20457;-74
2022/02/13 06:38:10;;;;;;;12.60;9.30;;;2.20;1.00;;;;;;5100341;28;20477;-76
2022/02/13 06:40:36;;;;;;;15.23;9.93;;;;;;;;;;5108315;28;20450;-75
2022/02/13 06:43:02;;;;;;;18.00;8.47;;;;;;;;;;5102155;28;20881;-76
2022/02/13 06:45:28;;;;;;;12.40;8.77;;;;;;;;;;5103973;28;20572;-76
2022/02/13 06:47:54;;;;;;;10.87;8.47;;;2.30;1.00;;;;;;5101892;28;20541;-75
2022/02/13 06:50:20;;;;;;;14.27;8.53;;;;;;;;;;5100886;28;20456;-75
2022/02/13 06:52:46;;;;;;;13.13;8.50;;;2.20;1.00;;;;;;5108333;28;20719;-75
2022/02/13 06:55:12;;;;;;;13.77;9.00;;;;;;;;;;5106492;28;20447;-76
2022/02/13 06:57:49;;;;;;;11.60;8.50;;;2.30;1.00;;;;;;5100331;28;21557;-76
2022/02/13 07:00:17;;;;;;;14.10;8.37;;;2.50;1.00;;;;;;5103115;28;20477;-76
2022/02/13 07:02:43;;;;;;;11.13;8.63;;;2.40;1.00;;;;;;5107618;28;20900;-76
2022/02/13 07:05:09;;;;;;;11.00;7.57;;;2.50;1.00;;;;;;5100934;28;20585;-75
2022/02/13 07:07:38;;;;;;;9.80;7.13;;;;;;;;;;5103278;28;20450;-75
2022/02/13 07:10:05;;;;;;;12.17;8.00;;;2.50;1.00;;;;;;5104509;28;20496;-75
2022/02/13 07:12:31;;;;;;;11.30;7.70;;;2.70;1.00;;;;;;5107837;28;20553;-75
2022/02/13 07:14:57;;;;;;;12.53;8.50;;;;;;;;;;5099647;28;20439;-75
2022/02/13 07:17:24;;;;;;;13.00;7.93;;;;;;;;;;5101034;28;20316;-76
2022/02/13 07:19:50;;;;;;;10.43;6.93;;;2.80;1.00;;;;;;5099660;28;20448;-75
2022/02/13 07:22:16;;;;;;;9.97;7.77;;;;;;;;;;5103250;28;21019;-74
2022/02/13 07:24:42;;;;;;;11.07;7.80;;;;;;;;;;5079230;28;20201;-75
2022/02/13 07:27:08;;;;;;;10.13;7.57;;;;;;;;;;5099677;28;20507;-75
2022/02/13 07:29:34;;;;;;;11.73;7.37;;;2.90;1.00;;;;;;5107538;28;20920;-76
2022/02/13 07:32:00;;;;;;;11.50;7.10;;;3.00;1.00;;;;;;5086275;28;20956;-75
2022/02/13 07:34:26;;;;;;;9.43;7.30;;;3.10;1.00;;;;;;5105974;28;20445;-76
2022/02/13 07:36:55;;;;;;;11.13;7.30;;;;;;;;;;5084551;28;20445;-75
2022/02/13 07:39:21;;;;;;;10.90;8.50;;;3.10;1.00;;;;;;5099402;28;20257;-75
2022/02/13 07:41:47;;;;;;;11.47;7.57;;;;;;;;;;5107209;28;20448;-75
2022/02/13 07:44:13;;;;;;;10.20;8.47;;;;;;;;;;5102791;28;21323;-74
2022/02/13 07:46:39;;;;;;;9.97;7.70;;;3.30;1.00;;;;;;5100801;28;20613;-75
2022/02/13 07:49:05;;;;;;;10.67;7.00;;;;;;;;;;5104131;28;20575;-74
2022/02/13 07:51:34;;;;;;;10.07;7.60;;;3.40;1.00;;;;;;5100795;28;20230;-75
2022/02/13 07:54:00;;;;;;;8.90;7.00;;;3.50;1.00;;;;;;5097008;28;20933;-75
2022/02/13 07:56:26;;;;;;;9.70;8.13;;;3.60;1.00;;;;;;5101189;28;20928;-74
2022/02/13 07:58:52;;;;;;;10.50;8.07;;;;;;;;;;5102273;28;20444;-75
2022/02/13 08:01:19;;;;;;;11.63;8.67;;;3.70;1.00;;;;;;5101537;28;20924;-75
2022/02/13 08:03:45;;;;;;;11.93;8.27;;;;;;;;;;5103842;28;20455;-74
2022/02/13 08:06:12;;;;;;;10.30;8.30;;;3.90;1.00;;;;;;5100853;28;20575;-75
2022/02/13 08:08:38;;;;;;;11.53;7.90;;;4.00;1.00;;;;;;5096028;28;20463;-76
2022/02/13 08:11:05;;;;;;;11.57;8.10;;;3.90;1.00;;;;;;5103163;28;20455;-75
2022/02/13 08:13:31;;;;;;;11.73;8.03;;;4.10;1.00;;;;;;5106237;28;20479;-75
2022/02/13 08:15:57;;;;;;;11.40;8.00;;;;;;;;;;5087840;28;20444;-76
2022/02/13 08:18:23;;;;;;;11.47;8.13;;;;;;;;;;5103504;28;20455;-75
2022/02/13 08:20:49;;;;;;;10.30;8.20;;;;;;;;;;5094763;28;20476;-75
2022/02/13 08:23:15;;;;;;;14.13;8.40;;;4.40;1.00;;;;;;5103109;28;20452;-75
2022/02/13 08:25:42;;;;;;;8.23;6.83;;;4.60;1.00;;;;;;5102983;28;20540;-75
2022/02/13 08:28:08;;;;;;;8.10;7.30;;;4.70;1.00;;;;;;5104063;28;20200;-75
2022/02/13 08:30:34;;;;;;;12.57;8.73;;;;;;;;;;5099888;28;20445;-75
2022/02/13 08:33:01;;;;;;;12.67;7.77;;;;;;;;;;5109049;28;20921;-75
2022/02/13 08:35:28;;;;;;;11.97;8.50;;;;;;;;;;5103555;28;20449;-75
2022/02/13 08:37:53;;;;;;;8.87;6.00;;;5.50;1.00;;;;;;5105169;28;20912;-75
2022/02/13 08:40:19;;;;;;;12.20;8.10;;;5.60;1.00;;;;;;5097784;28;20451;-75
2022/02/13 08:42:45;;;;;;;9.60;7.57;;;;;;;;;;5104087;28;20593;-75
2022/02/13 08:45:11;;;;;;;8.30;6.63;;;;;;;;;;5104556;28;20643;-76
2022/02/13 08:47:37;;;;;;;10.87;7.10;;;;;;;;;;5104279;28;20809;-76
2022/02/13 08:50:03;;;;;;;11.73;7.70;;;5.60;1.00;;;;;;5101526;28;20593;-76
2022/02/13 08:52:29;;;;;;;11.23;6.80;;;;;;;;;;5097871;28;20482;-75
2022/02/13 08:54:55;;;;;;;10.03;7.30;;;;;;;;;;5100040;28;20452;-75
2022/02/13 08:57:21;;;;;;;8.87;7.10;;;;;;;;;;5100770;28;20458;-74
2022/02/13 08:59:47;;;;;;;9.03;7.50;;;6.60;1.00;;;;;;5097823;28;20456;-76
2022/02/13 09:02:14;;;;;;;8.13;7.30;;;;;;;;;;5102678;28;20806;-76
2022/02/13 09:04:39;;;;;;;13.40;8.00;;;6.90;1.00;;;;;;5098029;28;20437;-76
2022/02/13 09:07:05;;;;;;;9.80;8.00;;;6.70;1.00;;;;;;5099595;28;20957;-75
2022/02/13 09:09:34;;;;;;;9.60;7.83;;;6.60;1.00;;;;;;5100537;28;20194;-75
2022/02/13 09:12:00;;;;;;;9.50;7.63;;;;;;;;;;5100355;28;20203;-75
2022/02/13 09:14:25;;;;;;;11.20;7.70;;;6.40;1.00;;;;;;5087055;28;21037;-74
2022/02/13 09:16:51;;;;;;;10.07;8.30;;;;;;;;;;5101072;28;20502;-74
2022/02/13 09:19:19;;;;;;;10.33;7.37;;;6.50;1.00;;;;;;5100224;28;20277;-68
2022/02/13 09:21:45;;;;;;;12.57;9.03;;;6.50;1.00;;;;;;5081087;28;20452;-68
2022/02/13 09:24:11;;;;;;;11.93;8.53;;;6.60;1.00;;;;;;5102212;28;20448;-68
2022/02/13 09:26:36;;;;;;;11.10;8.17;;;6.70;1.00;;;;;;5105227;28;20555;-67
2022/02/13 09:29:02;;;;;;;8.57;7.23;;;6.80;1.00;;;;;;5097400;28;20838;-68
2022/02/13 09:31:28;;;;;;;9.70;8.20;;;;;;;;;;5098830;28;20549;-68
2022/02/13 09:33:54;;;;;;;15.93;8.27;;;6.90;1.00;;;;;;5083287;28;20802;-74
2022/02/13 09:36:20;;;;;;;11.00;9.00;;;7.10;1.00;;;;;;5101600;28;20483;-74
2022/02/13 09:38:46;;;;;;;10.23;8.20;;;7.30;1.00;;;;;;5107624;28;20872;-74
2022/02/13 09:41:15;;;;;;;13.77;8.70;;;7.30;1.00;;;;;;5087452;28;20201;-74
2022/02/13 09:43:40;;;;;;;10.57;7.60;;;7.50;1.00;;;;;;5105987;28;20900;-74
2022/02/13 09:46:06;;;;;;;10.37;7.93;;;10.70;1.00;;;;;;5097914;28;20462;-74
2022/02/13 09:48:36;;;;;;;9.10;7.33;;;7.50;1.00;;;;;;5099932;28;20178;-75
2022/02/13 09:51:02;;;;;;;11.70;8.50;;;;;;;;;;5107779;28;20442;-74
2022/02/13 09:53:34;;;;;;;8.73;7.83;;;7.60;1.00;;;;;;5083418;28;20468;-76
2022/02/13 09:56:00;;;;;;;10.33;8.63;;;7.50;1.00;;;;;;5099909;28;20555;-75
2022/02/13 09:58:26;;;;;;;10.33;8.20;;;7.60;1.00;;;;;;5100820;28;20444;-73
2022/02/13 10:00:59;;;;;;;8.97;8.07;;;;;;;;;;5107072;28;20450;-74
2022/02/13 10:03:30;;;;;;;9.10;7.27;;;7.80;1.00;;;;;;5103472;28;20178;-70
2022/02/13 10:06:00;;;;;;;9.40;8.37;;;7.80;1.00;;;;;;5103604;28;20968;-74
2022/02/13 10:08:27;;;;;;;10.27;8.90;;;7.90;1.00;;;;;;5082381;28;20444;-72
2022/02/13 10:11:06;;;;;;;12.20;7.27;;;;;;;;;;5101093;28;20444;-73
2022/02/13 10:14:05;;;;;;;7.50;6.70;;;8.00;1.00;;;;;;5101213;28;20440;-72
2022/02/13 10:16:31;;;;;;;10.17;7.13;;;;;;;;;;5099688;28;20455;-69
2022/02/13 10:19:16;;;;;;;9.60;7.03;;;8.10;1.00;;;;;;5080688;28;21107;-73
2022/02/13 10:21:43;;;;;;;8.50;5.93;;;10.90;1.00;;;;;;5100023;28;20937;-72
2022/02/13 10:24:15;;;;;;;8.90;7.77;;;8.40;1.00;;;;;;5105852;28;20436;-72
2022/02/13 10:26:42;;;;;;;9.23;7.53;;;8.40;1.00;;;;;;5101438;28;20494;-72
2022/02/13 10:29:08;;;;;;;9.97;7.00;;;8.50;1.00;;;;;;5108332;28;20427;-72
2022/02/13 10:31:35;;;;;;;9.70;7.00;;;8.50;1.00;;;;;;5107056;28;20787;-72
2022/02/13 10:34:01;;;;;;;8.20;6.50;;;8.60;1.00;;;;;;5103683;28;20463;-72
2022/02/13 10:36:27;;;;;;;7.93;6.70;;;;;;;;;;5103163;28;20440;-72
2022/02/13 10:38:55;;;;;;;9.00;7.20;;;8.80;1.00;;;;;;5091076;28;20456;-70
2022/02/13 10:41:28;;;;;;;11.20;7.70;;;8.90;1.00;;;;;;5102598;28;20448;-72
2022/02/13 10:43:59;;;;;;;11.10;8.10;;;9.00;1.00;;;;;;5102584;28;20435;-71
2022/02/13 10:46:36;;;;;;;8.90;7.50;;;9.10;1.00;;;;;;5103535;28;20471;-73
2022/02/13 10:49:03;;;;;;;10.73;7.40;;;9.20;1.00;;;;;;5101596;28;20551;-71
2022/02/13 10:51:29;;;;;;;10.23;7.57;;;9.30;1.00;;;;;;5083735;28;20435;-71
2022/02/13 10:53:56;;;;;;;11.27;7.13;;;9.20;1.00;;;;;;5099242;28;20508;-68
2022/02/13 10:56:22;;;;;;;11.57;7.67;;;9.30;1.00;;;;;;5100732;28;20474;-69
2022/02/13 10:58:48;;;;;;;12.37;7.10;;;9.40;1.00;;;;;;5098803;28;20444;-68
2022/02/13 11:01:16;;;;;;;10.23;7.43;;;9.50;1.00;;;;;;5095406;28;20964;-72
2022/02/13 11:03:44;;;;;;;8.30;6.33;;;9.60;1.00;;;;;;5085215;28;20419;-70
2022/02/13 11:06:10;;;;;;;8.00;7.10;;;;;;;;;;5106378;28;20560;-71
2022/02/13 11:08:54;;;;;;;6.97;5.70;;;9.70;1.00;;;;;;5099435;28;20471;-72
2022/02/13 11:11:21;;;;;;;7.87;6.50;;;9.80;1.00;;;;;;5075440;28;20440;-70
2022/02/13 11:13:47;;;;;;;8.20;6.40;;;9.90;1.00;;;;;;5104015;28;20436;-69
2022/02/13 11:16:38;;;;;;;13.17;7.30;;;9.90;1.00;;;;;;5101358;28;20503;-69
2022/02/13 11:19:09;;;;;;;10.10;7.23;;;9.90;1.00;;;;;;5098523;28;20441;-70
2022/02/13 11:21:36;;;;;;;10.50;7.50;;;10.00;1.00;;;;;;5106290;28;20459;-70
2022/02/13 11:24:03;;;;;;;8.40;6.90;;;10.00;1.00;;;;;;5102874;28;20444;-70
2022/02/13 11:26:44;;;;;;;6.80;6.10;;;9.90;1.00;;;;;;5098243;28;20826;-72
2022/02/13 11:29:14;;;;;;;9.70;7.20;;;10.00;1.00;;;;;;5097429;28;20498;-71
2022/02/13 11:31:42;;;;;;;7.50;6.53;;;10.10;1.00;;;;;;5106784;28;20917;-73
2022/02/13 11:34:16;;;;;;;8.70;6.60;;;10.20;1.00;;;;;;5097275;28;20444;-72
2022/02/13 11:36:47;;;;;;;8.87;6.60;;;10.30;1.00;;;;;;5086238;28;20439;-72
2022/02/13 11:39:32;;;;;;;9.10;7.23;;;10.30;1.00;;;;;;5081620;28;20446;-70
2022/02/13 11:42:00;;;;;;;7.87;6.20;;;10.40;1.00;;;;;;5102084;28;20543;-72
2022/02/13 11:44:44;;;;;;;6.90;6.23;;;10.40;1.00;;;;;;5099864;28;20455;-72
2022/02/13 11:47:31;;;;;;;6.47;5.83;;;10.50;1.00;;;;;;5106362;28;20823;-73
2022/02/13 11:50:14;;;;;;;9.53;7.03;;;10.60;1.00;;;;;;5088267;28;20437;-73
2022/02/13 11:52:50;;;;;;;9.33;5.97;;;10.80;1.00;;;;;;5104471;28;20922;-72
2022/02/13 11:55:17;;;;;;;9.40;5.80;;;10.80;1.00;;;;;;5103648;28;20440;-73
2022/02/13 11:57:56;;;;;;;8.30;6.00;;;10.90;1.00;;;;;;5100320;28;20531;-73
2022/02/13 12:00:43;;;;;;;7.10;5.77;;;10.90;1.00;;;;;;5100728;28;20945;-73
2022/02/13 12:03:19;;;;;;;7.90;6.43;;;10.90;1.00;;;;;;5105902;28;20463;-73
2022/02/13 12:05:52;;;;;;;10.03;5.70;;;11.10;1.00;;;;;;5103395;28;20460;-75
2022/02/13 12:08:22;;;;;;;6.33;5.70;;;11.00;1.00;;;;;;5089840;28;20436;-73
2022/02/13 12:10:48;;;;;;;10.00;6.33;;;11.10;1.00;;;;;;5099914;28;20456;-76
2022/02/13 12:13:19;;;;;;;8.70;6.53;;;11.00;1.00;;;;;;5098448;28;20432;-71
2022/02/13 12:15:52;;;;;;;7.10;5.40;;;11.00;1.00;;;;;;5103327;28;20471;-72
2022/02/13 12:18:18;;;;;;;8.47;6.13;;;11.10;1.00;;;;;;5100865;28;20523;-71
2022/02/13 12:20:44;;;;;;;6.00;5.43;;;11.40;1.00;;;;;;5101843;28;20528;-70
2022/02/13 12:23:12;;;;;;;7.10;6.50;;;11.60;1.00;;;;;;5083913;28;20183;-70
2022/02/13 12:25:41;;;;;;;6.97;5.37;;;11.60;1.00;;;;;;5101019;28;20447;-65
2022/02/13 12:28:08;;;;;;;5.87;5.27;;;11.80;1.00;;;;;;5106249;28;20449;-70
2022/02/13 12:30:34;;;;;;;6.33;4.97;;;11.80;1.00;;;;;;5107634;28;20428;-72
2022/02/13 12:33:01;;;;;;;5.03;4.40;;;12.10;1.00;;;;;;5111912;28;20967;-72
2022/02/13 12:35:35;;;;;;;4.60;3.30;;;12.30;1.00;;;;;;5108854;28;20440;-72
2022/02/13 12:38:03;;;;;;;6.07;4.10;;;12.30;1.00;;;;;;5100755;28;20465;-71
2022/02/13 12:40:37;;;;;;;9.20;6.30;;;12.20;1.00;;;;;;5107398;28;20411;-73
2022/02/13 12:43:07;;;;;;;7.57;6.77;;;12.10;1.00;;;;;;5099244;28;20411;-72
2022/02/13 12:45:35;;;;;;;7.57;5.97;;;11.90;1.00;;;;;;5102282;28;20432;-72
2022/02/13 12:48:03;;;;;;;6.27;5.50;;;11.90;1.00;;;;;;5085765;28;20426;-71
2022/02/13 12:50:37;;;;;;;7.90;6.10;;;11.80;1.00;;;;;;5091805;28;20436;-71
2022/02/13 12:53:09;;;;;;;8.90;6.20;;;11.70;1.00;;;;;;5098253;28;20469;-72
2022/02/13 12:55:36;;;;;;;8.37;6.10;;;11.70;1.00;;;;;;5106336;28;20952;-71
2022/02/13 12:58:02;;;;;;;5.27;4.77;;;11.60;1.00;;;;;;5102234;28;20432;-71
2022/02/13 13:00:34;;;;;;;5.97;4.33;;;11.80;1.00;;;;;;5097823;28;20436;-72
2022/02/13 13:03:05;;;;;;;3.63;3.33;;;11.90;1.00;;;;;;5105607;28;20906;-71
2022/02/13 13:05:45;;;;;;;4.70;3.33;;;12.20;1.00;;;;;;5103303;28;20829;-73
2022/02/13 13:08:35;;;;;;;5.67;3.30;;;12.40;1.00;;;;;;5105306;28;20490;-71
2022/02/13 13:11:04;;;;;;;5.07;2.93;;;12.50;1.00;;;;;;5095449;28;20447;-71
2022/02/13 13:13:34;;;;;;;3.97;3.60;;;12.50;1.00;;;;;;5102410;28;21019;-72
2022/02/13 13:16:03;;;;;;;5.43;3.37;;;12.40;1.00;;;;;;5105895;28;20460;-71
2022/02/13 13:18:33;;;;;;;3.23;2.90;;;12.30;1.00;;;;;;5099819;28;20436;-71
2022/02/13 13:21:10;;;;;;;4.37;3.13;;;12.30;1.00;;;;;;5106347;28;20920;-72
2022/02/13 13:23:36;;;;;;;4.73;3.67;;;;;;;;;;5082009;28;20422;-73
2022/02/13 13:26:12;;;;;;;6.77;3.00;;;12.30;1.00;;;;;;5101223;28;20460;-72
2022/02/13 13:28:40;;;;;;;4.70;4.20;;;;;;;;;;5087202;28;20443;-71
2022/02/13 13:31:06;;;;;;;4.93;3.10;;;12.40;1.00;;;;;;5096692;28;20543;-71
2022/02/13 13:33:32;;;;;;;4.90;3.40;;;;;;;;;;5103371;28;20521;-71